Time;durP1;ratioP1;P1;durP2;ratioP2;P2;SDS_P1;SDS_P2;PMS_P1;PMS_P2;Temp;Humidity;BMP_temperature;BMP_pressure;BME280_temperature;BME280_humidity;BME280_pressure;Samples;Min_cycle;Max_cycle;Signal;HPM_P1;HPM_P2
2023/03/25 00:00:16;;;;;;;3.45;0.90;;;11.80;99.90;;;;;;4936991;28;20050;-86
2023/03/25 00:02:48;;;;;;;3.75;0.98;;;11.80;99.90;;;;;;4928000;28;20297;-87
2023/03/25 00:05:15;;;;;;;3.67;1.15;;;11.80;99.90;;;;;;4930757;28;20129;-89
2023/03/25 00:07:47;;;;;;;2.03;0.88;;;11.80;99.90;;;;;;4921945;28;20256;-89
2023/03/25 00:10:14;;;;;;;1.47;0.83;;;11.80;99.90;;;;;;4940259;28;20031;-86
2023/03/25 00:12:41;;;;;;;2.35;0.80;;;11.70;99.90;;;;;;4921225;29;20027;-89
2023/03/25 00:15:09;;;;;;;1.80;0.75;;;11.70;99.90;;;;;;4936638;28;20495;-89
2023/03/25 00:17:37;;;;;;;2.25;0.80;;;11.70;99.90;;;;;;4934208;28;20193;-87
2023/03/25 00:20:07;;;;;;;2.40;0.80;;;11.70;99.90;;;;;;4916337;28;20033;-88
2023/03/25 00:22:39;;;;;;;2.47;0.80;;;11.60;99.90;;;;;;4937094;28;20061;-89
2023/03/25 00:25:09;;;;;;;2.42;0.82;;;11.60;99.90;;;;;;4920483;29;20024;-86
2023/03/25 00:27:35;;;;;;;1.13;0.70;;;11.60;99.90;;;;;;4932955;28;20138;-89
2023/03/25 00:30:01;;;;;;;3.33;0.90;;;11.60;99.90;;;;;;4930302;28;20023;-88
2023/03/25 00:32:28;;;;;;;1.43;0.87;;;11.60;99.90;;;;;;4926043;28;20074;-86
2023/03/25 00:34:54;;;;;;;1.57;0.80;;;11.60;99.90;;;;;;4914527;28;20614;-86
2023/03/25 00:37:20;;;;;;;1.52;0.80;;;11.70;99.90;;;;;;4937156;28;20023;-86
2023/03/25 00:39:46;;;;;;;2.92;1.00;;;11.60;99.90;;;;;;4933222;28;20283;-86
2023/03/25 00:42:24;;;;;;;2.95;0.70;;;11.60;99.90;;;;;;4940031;28;20036;-86
2023/03/25 00:44:53;;;;;;;1.00;0.70;;;11.60;99.90;;;;;;4922763;28;20050;-87
2023/03/25 00:47:20;;;;;;;3.40;1.00;;;11.60;99.90;;;;;;4938258;28;20054;-88
2023/03/25 00:49:47;;;;;;;2.75;0.90;;;11.60;99.90;;;;;;4916353;28;20206;-86
2023/03/25 00:52:14;;;;;;;2.92;1.00;;;11.50;99.90;;;;;;4915896;28;20396;-88
2023/03/25 00:54:40;;;;;;;1.90;1.00;;;11.60;99.90;;;;;;4921727;28;20026;-85
2023/03/25 00:57:06;;;;;;;1.40;0.77;;;11.50;99.90;;;;;;4935109;28;20305;-87
2023/03/25 00:59:32;;;;;;;2.27;0.80;;;11.50;99.90;;;;;;4937046;28;20555;-87
2023/03/25 01:01:57;;;;;;;2.67;1.03;;;11.50;99.90;;;;;;4929915;28;20023;-88
2023/03/25 01:04:23;;;;;;;2.53;0.90;;;11.50;99.90;;;;;;4946706;28;20031;-87
2023/03/25 01:06:52;;;;;;;1.35;0.70;;;11.50;99.90;;;;;;4915380;28;20554;-86
2023/03/25 01:09:19;;;;;;;2.10;0.90;;;11.40;99.90;;;;;;4922856;29;20027;-86
2023/03/25 01:11:46;;;;;;;3.03;0.90;;;11.40;99.90;;;;;;4931912;28;20544;-86
2023/03/25 01:14:15;;;;;;;2.20;0.90;;;11.40;99.90;;;;;;4954285;28;20034;-86
2023/03/25 01:16:41;;;;;;;3.70;0.80;;;11.40;99.90;;;;;;4927545;29;20054;-86
2023/03/25 01:19:07;;;;;;;2.88;0.90;;;11.40;99.90;;;;;;4930598;28;20493;-90
2023/03/25 01:21:35;;;;;;;2.03;0.85;;;11.40;99.90;;;;;;4929445;28;20391;-86
2023/03/25 01:24:02;;;;;;;1.07;0.70;;;11.30;99.90;;;;;;4921685;28;20038;-86
2023/03/25 01:26:28;;;;;;;1.15;0.70;;;11.30;99.90;;;;;;4936846;28;20032;-87
2023/03/25 01:28:53;;;;;;;3.75;0.80;;;11.20;99.90;;;;;;4934788;28;20074;-87
2023/03/25 01:31:21;;;;;;;2.23;1.33;;;11.20;99.90;;;;;;4919588;29;20635;-88
2023/03/25 01:33:48;;;;;;;4.28;1.20;;;11.20;99.90;;;;;;4922127;28;20031;-87
2023/03/25 01:36:14;;;;;;;2.30;0.80;;;11.10;99.90;;;;;;4949777;28;20074;-87
2023/03/25 01:38:41;;;;;;;3.33;1.00;;;11.10;99.90;;;;;;4913304;28;20058;-86
2023/03/25 01:41:08;;;;;;;2.40;0.90;;;11.10;99.90;;;;;;4952530;28;20245;-87
2023/03/25 01:43:36;;;;;;;3.87;1.37;;;11.10;99.90;;;;;;4939552;28;20448;-88
2023/03/25 01:46:03;;;;;;;2.88;0.90;;;11.10;99.90;;;;;;4920479;28;20197;-88
2023/03/25 01:48:36;;;;;;;2.83;0.90;;;11.10;99.90;;;;;;4944972;28;20046;-86
2023/03/25 01:51:14;;;;;;;4.57;1.00;;;11.10;99.90;;;;;;4930194;28;20160;-88
2023/03/25 01:53:41;;;;;;;2.90;0.90;;;11.10;99.90;;;;;;4900653;29;20038;-89
2023/03/25 01:56:12;;;;;;;3.65;1.02;;;11.20;99.90;;;;;;4936835;28;20453;-87
2023/03/25 01:58:38;;;;;;;3.30;0.90;;;11.20;99.90;;;;;;4937277;28;20019;-87
2023/03/25 02:01:05;;;;;;;3.90;1.00;;;11.20;99.90;;;;;;4937320;29;20248;-87
2023/03/25 02:03:35;;;;;;;2.85;0.80;;;11.20;99.90;;;;;;4933815;28;20035;-86
2023/03/25 02:06:09;;;;;;;1.30;0.90;;;11.20;99.90;;;;;;4930312;28;20915;-89
2023/03/25 02:08:38;;;;;;;2.25;0.88;;;11.20;99.90;;;;;;4934230;28;20825;-86
2023/03/25 02:11:09;;;;;;;2.70;0.90;;;11.20;99.90;;;;;;4936176;28;20031;-86
2023/03/25 02:13:38;;;;;;;2.83;0.70;;;11.20;99.90;;;;;;4952921;28;20547;-87
2023/03/25 02:16:20;;;;;;;4.70;0.98;;;11.20;99.90;;;;;;4919172;29;20031;-86
2023/03/25 02:19:13;;;;;;;3.47;0.97;;;11.20;99.90;;;;;;4915264;29;20667;-88
2023/03/25 02:22:19;;;;;;;5.32;1.67;;;11.20;99.90;;;;;;4934575;28;20118;-85
2023/03/25 02:25:23;;;;;;;2.28;0.90;;;11.20;99.90;;;;;;4895251;29;20035;-87
2023/03/25 02:28:05;;;;;;;2.60;0.90;;;11.20;99.90;;;;;;4918898;29;20027;-86
2023/03/25 02:30:59;;;;;;;3.83;0.93;;;11.20;99.90;;;;;;4933819;28;20031;-86
2023/03/25 02:34:03;;;;;;;2.20;0.90;;;11.20;99.90;;;;;;4922853;29;20023;-88
2023/03/25 02:36:38;;;;;;;3.90;1.00;;;11.30;99.90;;;;;;4915421;29;20120;-87
2023/03/25 02:39:29;;;;;;;2.03;0.80;;;11.30;99.90;;;;;;4926283;29;20038;-87
2023/03/25 02:42:28;;;;;;;2.63;0.95;;;11.30;99.90;;;;;;4911329;28;20130;-87
2023/03/25 02:45:07;;;;;;;2.03;0.90;;;11.30;99.70;;;;;;4946829;28;20058;-86
2023/03/25 02:47:36;;;;;;;2.47;0.80;;;11.40;99.90;;;;;;4936539;29;20063;-86
2023/03/25 02:50:16;;;;;;;4.43;0.93;;;11.40;99.90;;;;;;4949289;28;21068;-89
2023/03/25 02:52:52;;;;;;;3.45;1.08;;;11.40;99.90;;;;;;4908883;28;20506;-87
2023/03/25 02:55:20;;;;;;;4.00;0.85;;;11.40;99.90;;;;;;4951594;28;20241;-87
2023/03/25 02:57:51;;;;;;;4.20;1.00;;;11.40;99.90;;;;;;4929648;28;20043;-87
2023/03/25 03:00:21;;;;;;;2.00;1.10;;;11.40;99.90;;;;;;4933138;29;20036;-87
2023/03/25 03:02:58;;;;;;;4.70;1.27;;;11.50;99.90;;;;;;4936511;28;20059;-86
2023/03/25 03:05:24;;;;;;;1.98;0.90;;;11.50;99.90;;;;;;4918806;29;20453;-88
2023/03/25 03:08:13;;;;;;;4.23;1.07;;;11.50;99.90;;;;;;4909693;29;20023;-89
2023/03/25 03:10:51;;;;;;;2.45;0.90;;;11.50;99.90;;;;;;4915069;29;20067;-86
2023/03/25 03:13:46;;;;;;;4.65;0.95;;;11.50;99.90;;;;;;4913104;29;20038;-89
2023/03/25 03:16:35;;;;;;;2.17;0.80;;;11.50;99.90;;;;;;4913201;29;20035;-88
2023/03/25 03:19:13;;;;;;;4.65;0.75;;;11.40;99.90;;;;;;4922615;29;20615;-89
2023/03/25 03:22:00;;;;;;;3.63;0.73;;;11.30;99.90;;;;;;4916204;29;20050;-87
2023/03/25 03:24:28;;;;;;;3.63;1.10;;;11.20;99.90;;;;;;4935209;28;20031;-91
2023/03/25 03:27:16;;;;;;;3.50;0.85;;;11.20;99.90;;;;;;4910538;28;21259;-87
2023/03/25 03:29:48;;;;;;;3.88;1.10;;;11.00;99.90;;;;;;4937298;28;20030;-88
2023/03/25 03:32:31;;;;;;;2.33;0.90;;;11.00;99.90;;;;;;4936850;28;20023;-90
2023/03/25 03:35:08;;;;;;;4.20;0.70;;;11.00;99.90;;;;;;4933577;28;20556;-88
2023/03/25 03:37:41;;;;;;;3.40;0.75;;;10.90;99.90;;;;;;4950600;28;20031;-90
2023/03/25 03:40:12;;;;;;;3.97;1.00;;;10.80;99.90;;;;;;4943296;28;20133;-87
2023/03/25 03:43:06;;;;;;;4.10;0.80;;;10.80;99.90;;;;;;4937357;28;20035;-87
2023/03/25 03:45:47;;;;;;;2.22;0.90;;;10.70;99.90;;;;;;4934106;28;20105;-87
2023/03/25 03:48:31;;;;;;;3.97;0.70;;;10.80;99.90;;;;;;4933172;28;20433;-85
2023/03/25 03:51:06;;;;;;;3.03;0.80;;;10.80;99.90;;;;;;4948496;28;20054;-89
2023/03/25 03:53:39;;;;;;;3.78;1.20;;;10.70;99.90;;;;;;4932940;28;20126;-87
2023/03/25 03:56:20;;;;;;;3.88;1.00;;;10.80;99.90;;;;;;4916942;29;20264;-90
2023/03/25 03:58:52;;;;;;;2.67;0.82;;;10.80;99.90;;;;;;4906336;28;20035;-88
2023/03/25 04:01:44;;;;;;;3.27;0.80;;;10.80;99.90;;;;;;4921791;29;20102;-89
2023/03/25 04:04:15;;;;;;;5.20;1.08;;;10.80;99.90;;;;;;4919820;29;20107;-89
2023/03/25 04:06:55;;;;;;;3.20;0.80;;;10.80;99.90;;;;;;4932607;29;20050;-87
2023/03/25 04:09:53;;;;;;;2.53;0.80;;;10.80;99.90;;;;;;4944777;28;20489;-86
2023/03/25 04:12:31;;;;;;;2.60;0.80;;;10.90;99.90;;;;;;4927420;28;20098;-88
2023/03/25 04:15:00;;;;;;;5.37;1.10;;;10.90;99.90;;;;;;4917247;28;20082;-87
2023/03/25 04:17:28;;;;;;;3.63;0.80;;;10.90;99.90;;;;;;4928613;28;20450;-89
2023/03/25 04:19:55;;;;;;;6.70;1.55;;;10.80;99.90;;;;;;4919012;28;20047;-86
2023/03/25 04:22:21;;;;;;;3.25;0.80;;;10.90;99.90;;;;;;4938234;29;20379;-88
2023/03/25 04:24:48;;;;;;;1.87;0.93;;;10.80;99.90;;;;;;4947863;28;20030;-86
2023/03/25 04:27:15;;;;;;;4.93;1.30;;;10.80;99.90;;;;;;4920960;29;20291;-87
2023/03/25 04:29:42;;;;;;;2.97;0.73;;;10.80;99.90;;;;;;4926877;28;20478;-87
2023/03/25 04:32:10;;;;;;;3.53;0.95;;;10.80;99.90;;;;;;4929586;29;20548;-88
2023/03/25 04:34:36;;;;;;;5.65;1.40;;;10.90;99.90;;;;;;4935485;28;20027;-86
2023/03/25 04:37:02;;;;;;;4.67;1.07;;;10.90;99.90;;;;;;4933864;29;20106;-87
2023/03/25 04:39:28;;;;;;;2.88;0.90;;;10.90;99.90;;;;;;4939777;28;20027;-89
2023/03/25 04:42:00;;;;;;;5.20;1.05;;;10.90;99.90;;;;;;4916562;28;20557;-87
2023/03/25 04:44:27;;;;;;;3.42;0.90;;;10.90;99.90;;;;;;4922110;28;20557;-86
2023/03/25 04:46:54;;;;;;;5.77;0.90;;;10.90;99.90;;;;;;4902785;28;20225;-88
2023/03/25 04:49:22;;;;;;;3.47;0.90;;;10.90;99.90;;;;;;4914849;28;20067;-86
2023/03/25 04:51:50;;;;;;;5.03;1.15;;;10.90;99.90;;;;;;4920175;28;20347;-92
2023/03/25 04:54:16;;;;;;;3.60;1.13;;;10.90;99.90;;;;;;4936506;29;20031;-87
2023/03/25 04:56:42;;;;;;;4.30;1.20;;;10.90;99.90;;;;;;4915360;28;20093;-86
2023/03/25 04:59:09;;;;;;;4.77;0.97;;;10.90;99.90;;;;;;4932086;28;20035;-90
2023/03/25 05:01:40;;;;;;;4.10;1.08;;;11.00;99.90;;;;;;4901123;29;20028;-87
2023/03/25 05:04:11;;;;;;;3.08;1.08;;;10.90;99.90;;;;;;4934269;28;20086;-86
2023/03/25 05:06:43;;;;;;;3.00;0.93;;;10.90;99.90;;;;;;4919199;29;20102;-86
2023/03/25 05:09:12;;;;;;;3.45;1.17;;;11.00;99.90;;;;;;4954454;28;20035;-87
2023/03/25 05:11:40;;;;;;;3.60;1.10;;;10.90;99.90;;;;;;4945206;28;20027;-88
2023/03/25 05:14:06;;;;;;;3.75;0.98;;;10.90;99.90;;;;;;4933165;29;20016;-89
2023/03/25 05:16:33;;;;;;;7.55;1.58;;;10.90;99.90;;;;;;4917300;28;20507;-86
2023/03/25 05:18:59;;;;;;;4.30;0.93;;;10.90;99.90;;;;;;4952776;28;20481;-89
2023/03/25 05:21:25;;;;;;;3.58;1.10;;;10.90;99.90;;;;;;4935941;28;20074;-86
2023/03/25 05:23:51;;;;;;;4.13;0.85;;;10.90;99.90;;;;;;4936684;29;20242;-88
2023/03/25 05:26:18;;;;;;;2.45;1.00;;;10.90;99.90;;;;;;4939212;28;20045;-89
2023/03/25 05:28:43;;;;;;;4.17;1.10;;;10.90;99.90;;;;;;4928830;29;20038;-87
2023/03/25 05:31:09;;;;;;;2.95;1.00;;;10.90;99.90;;;;;;4913836;28;20709;-90
2023/03/25 05:33:42;;;;;;;5.33;1.20;;;10.90;99.90;;;;;;4935321;28;20024;-85
2023/03/25 05:36:12;;;;;;;3.63;0.90;;;10.90;99.90;;;;;;4924083;29;20095;-86
2023/03/25 05:38:43;;;;;;;4.93;1.20;;;10.90;99.90;;;;;;4934984;28;21232;-87
2023/03/25 05:41:15;;;;;;;4.00;0.93;;;10.90;99.90;;;;;;4936031;28;20019;-87
2023/03/25 05:43:45;;;;;;;4.93;1.10;;;10.90;99.90;;;;;;4930792;28;20392;-88
2023/03/25 05:46:11;;;;;;;3.73;0.90;;;10.90;99.90;;;;;;4924424;28;20034;-87
2023/03/25 05:48:40;;;;;;;3.15;0.90;;;10.90;99.90;;;;;;4949431;28;20501;-86
2023/03/25 05:51:12;;;;;;;6.43;1.45;;;10.90;99.90;;;;;;4935233;28;20028;-90
2023/03/25 05:53:38;;;;;;;2.83;1.20;;;10.90;99.90;;;;;;4931740;28;20039;-88
2023/03/25 05:56:05;;;;;;;3.37;1.00;;;10.80;99.90;;;;;;4921656;29;20393;-87
2023/03/25 05:58:31;;;;;;;4.68;1.25;;;10.80;99.90;;;;;;4935363;28;20027;-88
2023/03/25 06:00:59;;;;;;;1.70;0.80;;;10.80;99.90;;;;;;4911651;28;20070;-87
2023/03/25 06:03:25;;;;;;;2.95;1.00;;;10.70;99.90;;;;;;4941840;28;20020;-89
2023/03/25 06:05:52;;;;;;;4.47;0.90;;;10.70;99.90;;;;;;4919954;29;20035;-87
2023/03/25 06:08:24;;;;;;;3.33;0.97;;;10.70;99.90;;;;;;4911267;28;20523;-90
2023/03/25 06:10:59;;;;;;;6.32;1.25;;;10.70;99.90;;;;;;4932880;28;20039;-87
2023/03/25 06:13:26;;;;;;;4.30;1.23;;;10.70;99.90;;;;;;4954836;28;20026;-88
2023/03/25 06:15:56;;;;;;;4.78;1.10;;;10.70;99.90;;;;;;4928318;28;20028;-86
2023/03/25 06:18:24;;;;;;;4.38;1.10;;;10.70;99.90;;;;;;4912819;28;20143;-87
2023/03/25 06:20:56;;;;;;;3.23;0.90;;;10.70;99.90;;;;;;4935930;28;20047;-87
2023/03/25 06:23:23;;;;;;;5.22;1.17;;;10.70;99.90;;;;;;4936532;28;20122;-89
2023/03/25 06:25:50;;;;;;;2.80;1.00;;;10.70;99.90;;;;;;4936938;28;20401;-86
2023/03/25 06:28:20;;;;;;;6.60;1.30;;;10.70;99.90;;;;;;4948927;28;20322;-87
2023/03/25 06:30:47;;;;;;;4.70;1.00;;;10.80;99.90;;;;;;4929587;29;20110;-86
2023/03/25 06:33:14;;;;;;;4.53;1.00;;;10.80;99.90;;;;;;4906548;28;20572;-87
2023/03/25 06:35:41;;;;;;;8.07;1.08;;;10.90;99.90;;;;;;4933951;29;20067;-88
2023/03/25 06:38:08;;;;;;;7.95;1.33;;;11.00;99.90;;;;;;4923157;28;20485;-88
2023/03/25 06:40:39;;;;;;;4.35;1.00;;;11.10;99.90;;;;;;4933885;28;20457;-87
2023/03/25 06:43:05;;;;;;;3.92;1.00;;;11.20;99.90;;;;;;4923913;29;20292;-86
2023/03/25 06:45:32;;;;;;;5.27;1.00;;;11.30;99.90;;;;;;4929230;28;20050;-86
2023/03/25 06:47:58;;;;;;;5.00;1.00;;;11.30;99.90;;;;;;4902244;28;20604;-86
2023/03/25 06:50:23;;;;;;;4.63;1.10;;;11.40;99.90;;;;;;4934696;28;20237;-86
2023/03/25 06:52:49;;;;;;;5.50;1.20;;;11.40;99.90;;;;;;4931636;29;20467;-86
2023/03/25 06:55:15;;;;;;;5.93;1.05;;;11.40;99.90;;;;;;4942043;28;20054;-87
2023/03/25 06:57:42;;;;;;;5.72;1.25;;;11.40;99.90;;;;;;4935044;29;20031;-87
2023/03/25 07:00:10;;;;;;;4.50;1.10;;;11.40;99.90;;;;;;4933032;28;20555;-87
2023/03/25 07:02:37;;;;;;;3.37;1.00;;;11.40;99.90;;;;;;4906409;29;20458;-89
2023/03/25 07:05:03;;;;;;;3.72;0.90;;;11.50;99.90;;;;;;4917302;28;20023;-88
2023/03/25 07:07:29;;;;;;;3.65;1.02;;;11.50;99.90;;;;;;4932189;28;20035;-85
2023/03/25 07:09:55;;;;;;;9.00;1.30;;;11.60;99.90;;;;;;4908433;28;20038;-86
2023/03/25 07:12:21;;;;;;;6.37;1.17;;;11.70;99.90;;;;;;4920086;29;20284;-87
2023/03/25 07:14:51;;;;;;;5.13;1.10;;;11.70;99.90;;;;;;4915865;28;20535;-87
2023/03/25 07:17:17;;;;;;;5.50;1.00;;;11.80;99.90;;;;;;4928330;28;20023;-88
2023/03/25 07:19:42;;;;;;;3.80;0.97;;;11.80;99.90;;;;;;4904229;28;20468;-90
2023/03/25 07:22:08;;;;;;;5.20;1.35;;;11.90;99.90;;;;;;4923280;28;20560;-89
2023/03/25 07:24:34;;;;;;;3.30;1.13;;;11.90;99.90;;;;;;4906765;29;20094;-86
2023/03/25 07:27:00;;;;;;;6.00;1.00;;;11.90;99.90;;;;;;4936004;28;20039;-89
2023/03/25 07:29:25;;;;;;;6.57;1.10;;;12.00;99.90;;;;;;4934311;28;20041;-89
2023/03/25 07:31:51;;;;;;;10.13;2.10;;;12.00;99.90;;;;;;4926609;29;20067;-87
2023/03/25 07:34:17;;;;;;;3.23;0.97;;;12.00;99.90;;;;;;4915377;28;20493;-88
2023/03/25 07:36:42;;;;;;;5.68;1.15;;;12.00;99.90;;;;;;4938161;28;20250;-88
2023/03/25 07:39:08;;;;;;;8.70;1.10;;;12.10;99.90;;;;;;4920858;28;20027;-87
2023/03/25 07:41:34;;;;;;;6.60;0.90;;;12.20;99.90;;;;;;4918853;29;20361;-88
2023/03/25 07:43:59;;;;;;;7.97;1.17;;;12.30;99.90;;;;;;4922904;29;20035;-88
2023/03/25 07:46:25;;;;;;;7.55;1.42;;;12.40;99.90;;;;;;4916753;29;20042;-87
2023/03/25 07:48:51;;;;;;;6.20;1.40;;;12.50;99.90;;;;;;4894729;29;20190;-86
2023/03/25 07:51:16;;;;;;;5.37;1.20;;;12.60;99.90;;;;;;4926402;29;20118;-86
2023/03/25 07:53:44;;;;;;;6.03;1.23;;;12.60;99.90;;;;;;4919225;29;20161;-87
2023/03/25 07:56:10;;;;;;;9.60;1.80;;;12.70;99.90;;;;;;4926408;28;20453;-89
2023/03/25 07:58:36;;;;;;;10.13;2.23;;;12.70;99.90;;;;;;4952462;28;20022;-87
2023/03/25 08:01:02;;;;;;;8.85;1.48;;;12.80;99.90;;;;;;4923583;28;20032;-90
2023/03/25 08:03:28;;;;;;;7.18;1.48;;;12.70;99.90;;;;;;4921556;29;20441;-88
2023/03/25 08:05:54;;;;;;;8.03;1.50;;;12.80;99.90;;;;;;4914816;28;20238;-89
2023/03/25 08:08:20;;;;;;;5.72;1.38;;;12.80;99.90;;;;;;4918808;29;20032;-89
2023/03/25 08:10:46;;;;;;;10.18;1.42;;;12.80;99.90;;;;;;4925148;29;20695;-90
2023/03/25 08:13:13;;;;;;;7.05;1.65;;;12.80;99.90;;;;;;4915153;29;20367;-88
2023/03/25 08:15:39;;;;;;;6.43;1.23;;;12.80;99.90;;;;;;4954389;28;20509;-88
2023/03/25 08:18:06;;;;;;;7.40;1.92;;;12.90;99.90;;;;;;4939437;28;20015;-89
2023/03/25 08:20:35;;;;;;;6.78;1.30;;;12.90;99.90;;;;;;4912903;28;20534;-87
2023/03/25 08:23:01;;;;;;;6.32;1.42;;;12.90;99.90;;;;;;4941196;28;20339;-86
2023/03/25 08:25:28;;;;;;;9.82;1.58;;;12.80;99.90;;;;;;4954589;28;20373;-89
2023/03/25 08:27:54;;;;;;;7.50;1.47;;;12.80;99.90;;;;;;4925120;28;20035;-88
2023/03/25 08:30:21;;;;;;;9.80;1.33;;;12.70;99.90;;;;;;4935046;28;20046;-89
2023/03/25 08:32:53;;;;;;;8.48;1.75;;;12.60;99.90;;;;;;4922695;29;20019;-89
2023/03/25 08:35:20;;;;;;;7.57;1.50;;;12.50;99.90;;;;;;4942178;28;20034;-87
2023/03/25 08:37:47;;;;;;;7.80;1.50;;;12.40;99.90;;;;;;4918203;28;20019;-88
2023/03/25 08:40:13;;;;;;;7.93;1.70;;;12.40;99.90;;;;;;4911618;28;20090;-91
2023/03/25 08:42:38;;;;;;;4.13;1.13;;;12.40;99.90;;;;;;4928451;28;20528;-89
2023/03/25 08:45:05;;;;;;;8.23;1.40;;;12.50;99.90;;;;;;4918351;28;20054;-89
2023/03/25 08:47:30;;;;;;;6.85;1.38;;;12.60;99.90;;;;;;4950176;28;20031;-87
2023/03/25 08:49:56;;;;;;;8.65;1.63;;;12.80;99.90;;;;;;4917574;29;20131;-87
2023/03/25 08:52:22;;;;;;;6.63;1.70;;;12.90;99.90;;;;;;4897167;29;20118;-87
2023/03/25 08:54:48;;;;;;;7.28;1.67;;;13.10;99.90;;;;;;4936488;28;20137;-88
2023/03/25 08:57:14;;;;;;;9.07;1.70;;;13.30;99.90;;;;;;4938868;29;20032;-87
2023/03/25 08:59:39;;;;;;;6.60;1.45;;;13.50;99.90;;;;;;4921446;28;20051;-87
2023/03/25 09:02:05;;;;;;;6.57;1.73;;;13.70;99.90;;;;;;4917109;29;20117;-87
2023/03/25 09:04:31;;;;;;;9.80;1.75;;;13.90;99.90;;;;;;4925697;28;20067;-87
2023/03/25 09:06:57;;;;;;;6.53;1.60;;;14.10;99.90;;;;;;4944967;28;20386;-89
2023/03/25 09:09:23;;;;;;;6.73;1.60;;;14.40;99.90;;;;;;4922190;28;20413;-86
2023/03/25 09:11:49;;;;;;;6.72;1.40;;;14.70;99.90;;;;;;4950757;28;20149;-85
2023/03/25 09:14:14;;;;;;;5.32;1.30;;;15.00;99.90;;;;;;4924390;28;20055;-87
2023/03/25 09:16:40;;;;;;;5.40;1.47;;;15.30;99.90;;;;;;4936046;29;20232;-87
2023/03/25 09:19:07;;;;;;;4.78;1.20;;;15.50;99.90;;;;;;4925443;28;20035;-88
2023/03/25 09:21:33;;;;;;;5.88;1.50;;;15.70;99.90;;;;;;4924135;29;20067;-88
2023/03/25 09:23:58;;;;;;;10.63;1.57;;;15.80;99.90;;;;;;4900503;28;20408;-88
2023/03/25 09:26:25;;;;;;;9.18;1.90;;;15.80;99.90;;;;;;4929092;28;20047;-90
2023/03/25 09:28:54;;;;;;;6.63;1.20;;;15.80;99.90;;;;;;4919210;28;20246;-86
2023/03/25 09:31:20;;;;;;;6.77;1.40;;;15.70;99.90;;;;;;4947149;28;20035;-86
2023/03/25 09:33:45;;;;;;;7.70;1.73;;;15.60;99.90;;;;;;4918250;28;20793;-86
2023/03/25 09:36:11;;;;;;;9.82;1.33;;;15.60;99.90;;;;;;4932091;28;20375;-88
2023/03/25 09:38:37;;;;;;;6.57;1.53;;;15.50;99.90;;;;;;4920057;28;20039;-87
2023/03/25 09:41:18;;;;;;;5.60;1.45;;;15.40;99.90;;;;;;4917847;28;20683;-87
2023/03/25 09:44:05;;;;;;;4.80;1.13;;;15.50;99.90;;;;;;4934334;28;20045;-91
2023/03/25 09:46:30;;;;;;;7.27;1.40;;;15.70;99.90;;;;;;4922970;28;20084;-89
2023/03/25 09:48:57;;;;;;;6.65;1.30;;;16.00;99.90;;;;;;4949677;28;20069;-88
2023/03/25 09:51:30;;;;;;;5.25;1.40;;;16.20;99.90;;;;;;4936556;29;20467;-86
2023/03/25 09:54:19;;;;;;;5.85;1.30;;;16.40;99.90;;;;;;4890349;28;20244;-87
2023/03/25 09:56:46;;;;;;;6.97;1.20;;;16.60;99.40;;;;;;4947995;28;20051;-89
2023/03/25 09:59:48;;;;;;;6.80;1.33;;;16.70;99.90;;;;;;4919886;28;20075;-88
2023/03/25 10:02:32;;;;;;;5.43;1.30;;;16.90;99.20;;;;;;4887801;29;20027;-87
2023/03/25 10:05:28;;;;;;;6.13;1.30;;;16.90;99.90;;;;;;4932205;28;20046;-86
2023/03/25 10:08:00;;;;;;;4.72;1.10;;;16.80;96.40;;;;;;4930276;28;20034;-90
2023/03/25 10:10:50;;;;;;;5.73;1.20;;;16.60;98.20;;;;;;4887585;29;20258;-87
2023/03/25 10:13:40;;;;;;;4.78;1.40;;;16.30;97.50;;;;;;4901078;28;20027;-88
2023/03/25 10:16:19;;;;;;;7.85;1.27;;;15.90;96.70;;;;;;4914374;28;20192;-86
2023/03/25 10:18:48;;;;;;;5.70;1.23;;;15.60;98.60;;;;;;4926210;28;20028;-86
2023/03/25 10:21:37;;;;;;;6.25;1.30;;;15.40;99.20;;;;;;4934428;29;20189;-87
2023/03/25 10:24:11;;;;;;;4.13;1.00;;;15.20;99.90;;;;;;4920725;28;20035;-86
2023/03/25 10:26:51;;;;;;;7.60;1.50;;;15.20;99.90;;;;;;4910387;28;20045;-87
2023/03/25 10:29:30;;;;;;;4.18;1.33;;;15.30;99.90;;;;;;4928118;28;20027;-86
2023/03/25 10:32:02;;;;;;;5.05;0.98;;;15.50;99.90;;;;;;4916336;28;20253;-88
2023/03/25 10:34:53;;;;;;;5.95;1.20;;;15.90;99.90;;;;;;4945644;28;20082;-86
2023/03/25 10:37:31;;;;;;;6.20;1.20;;;16.20;99.90;;;;;;4930660;29;20476;-85
2023/03/25 10:40:11;;;;;;;6.10;1.60;;;16.70;99.90;;;;;;4914085;28;20059;-88
2023/03/25 10:42:40;;;;;;;6.15;1.20;;;17.10;99.90;;;;;;4936359;28;20042;-86
2023/03/25 10:45:15;;;;;;;6.65;1.30;;;17.60;99.90;;;;;;4936072;28;20621;-89
2023/03/25 10:47:42;;;;;;;6.18;1.30;;;17.90;99.90;;;;;;4925241;28;20023;-87
2023/03/25 10:50:14;;;;;;;6.47;1.20;;;18.10;99.90;;;;;;4915748;28;20035;-89
2023/03/25 10:52:41;;;;;;;7.82;1.50;;;18.40;99.90;;;;;;4918962;29;20090;-89
2023/03/25 10:55:34;;;;;;;6.50;1.45;;;18.60;99.90;;;;;;4889893;28;20028;-87
2023/03/25 10:58:00;;;;;;;6.82;1.30;;;18.80;99.90;;;;;;4943416;28;20112;-87
2023/03/25 11:00:29;;;;;;;8.32;1.90;;;19.20;99.90;;;;;;4930328;28;20090;-89
2023/03/25 11:02:55;;;;;;;6.57;1.40;;;19.40;99.90;;;;;;4913704;28;20543;-86
2023/03/25 11:05:27;;;;;;;5.97;1.67;;;19.50;99.90;;;;;;4902839;28;20587;-87
2023/03/25 11:07:57;;;;;;;7.45;1.30;;;19.50;98.90;;;;;;4909859;29;20114;-86
2023/03/25 11:10:27;;;;;;;5.22;1.40;;;19.50;97.50;;;;;;4910649;28;20038;-87
2023/03/25 11:12:53;;;;;;;8.98;1.77;;;19.40;98.60;;;;;;4930742;28;20039;-87
2023/03/25 11:15:22;;;;;;;5.23;1.40;;;19.30;96.30;;;;;;4942091;28;20751;-83
2023/03/25 11:18:10;;;;;;;4.88;1.20;;;19.00;95.90;;;;;;4917359;28;20039;-87
2023/03/25 11:20:49;;;;;;;4.95;1.25;;;18.60;93.40;;;;;;4924020;28;20028;-90
2023/03/25 11:23:33;;;;;;;6.47;1.27;;;18.10;93.20;;;;;;4913209;28;20035;-88
2023/03/25 11:26:07;;;;;;;4.45;1.15;;;17.60;95.70;;;;;;4890048;29;20477;-85
2023/03/25 11:28:43;;;;;;;5.03;1.00;;;17.20;95.80;;;;;;4912479;28;20042;-89
2023/03/25 11:31:11;;;;;;;4.45;1.10;;;16.90;95.80;;;;;;4923121;28;20284;-88
2023/03/25 11:33:38;;;;;;;5.80;1.20;;;16.60;96.70;;;;;;4896109;28;21260;-89
2023/03/25 11:36:21;;;;;;;3.38;0.80;;;16.30;96.80;;;;;;4921160;28;20187;-90
2023/03/25 11:38:55;;;;;;;4.57;0.90;;;16.00;94.80;;;;;;4947054;28;20501;-88
2023/03/25 11:41:21;;;;;;;2.77;0.63;;;15.60;95.10;;;;;;4908987;28;20520;-88
2023/03/25 11:43:48;;;;;;;2.55;0.88;;;15.30;98.80;;;;;;4936142;28;20043;-89
2023/03/25 11:46:17;;;;;;;4.32;1.00;;;15.10;99.90;;;;;;4924039;28;20283;-88
2023/03/25 11:48:45;;;;;;;5.38;0.90;;;15.10;99.90;;;;;;4940650;28;20379;-90
2023/03/25 11:51:27;;;;;;;4.60;1.20;;;15.20;99.90;;;;;;4899534;28;20027;-87
2023/03/25 11:54:07;;;;;;;4.70;1.30;;;15.50;99.90;;;;;;4920338;28;20687;-89
2023/03/25 11:56:38;;;;;;;5.32;1.10;;;15.90;99.90;;;;;;4912131;28;20035;-88
2023/03/25 11:59:16;;;;;;;6.22;1.10;;;16.20;99.90;;;;;;4925316;28;20129;-88
2023/03/25 12:01:46;;;;;;;3.90;1.13;;;16.70;99.90;;;;;;4926315;28;20548;-88
2023/03/25 12:04:22;;;;;;;3.28;1.05;;;17.10;99.90;;;;;;4932794;28;20269;-88
2023/03/25 12:06:56;;;;;;;7.80;1.20;;;17.40;99.90;;;;;;4918054;29;20585;-89
2023/03/25 12:09:23;;;;;;;5.50;1.10;;;17.80;99.90;;;;;;4927576;28;20053;-90
2023/03/25 12:12:15;;;;;;;5.07;1.02;;;18.10;99.90;;;;;;4911843;29;20039;-88
2023/03/25 12:15:05;;;;;;;5.82;1.23;;;18.30;99.90;;;;;;4950354;28;20034;-88
2023/03/25 12:17:58;;;;;;;4.38;1.00;;;18.50;92.80;;;;;;4930506;29;20043;-89
2023/03/25 12:20:31;;;;;;;5.13;1.20;;;18.60;98.90;;;;;;4911119;28;20118;-87
2023/03/25 12:23:15;;;;;;;6.53;1.40;;;18.80;99.90;;;;;;4926468;28;20902;-88
2023/03/25 12:26:06;;;;;;;6.40;1.00;;;18.80;95.80;;;;;;4925897;28;20535;-86
2023/03/25 12:28:44;;;;;;;5.07;0.98;;;18.80;96.20;;;;;;4899839;29;20606;-86
2023/03/25 12:31:55;;;;;;;4.20;1.02;;;18.60;93.80;;;;;;4925721;29;20042;-88
2023/03/25 12:34:36;;;;;;;3.60;1.17;;;18.20;93.90;;;;;;4882912;29;20029;-87
2023/03/25 12:37:16;;;;;;;3.63;0.90;;;17.80;95.30;;;;;;4912886;28;20499;-87
2023/03/25 12:40:08;;;;;;;5.38;1.00;;;17.50;95.20;;;;;;4921097;28;20580;-90
2023/03/25 12:42:37;;;;;;;5.00;1.23;;;17.30;93.40;;;;;;4941947;28;20396;-89
2023/03/25 12:45:36;;;;;;;3.13;0.90;;;17.00;95.40;;;;;;4912996;28;20249;-90
2023/03/25 12:48:20;;;;;;;4.97;1.20;;;16.90;95.00;;;;;;4918841;28;20069;-86
2023/03/25 12:51:13;;;;;;;4.47;1.13;;;16.80;96.90;;;;;;4923344;28;20055;-89
2023/03/25 12:53:46;;;;;;;5.10;1.13;;;16.70;95.40;;;;;;4942427;28;20555;-91
2023/03/25 12:56:31;;;;;;;5.20;1.27;;;16.60;96.00;;;;;;4901599;29;20051;-88
2023/03/25 12:59:35;;;;;;;4.95;1.10;;;16.40;95.60;;;;;;4933978;28;20031;-89
2023/03/25 13:02:17;;;;;;;3.77;1.17;;;16.40;94.70;;;;;;4937825;28;20461;-85
2023/03/25 13:05:15;;;;;;;7.13;1.25;;;16.30;96.30;;;;;;4932659;28;20214;-90
2023/03/25 13:08:10;;;;;;;3.85;1.20;;;16.20;94.60;;;;;;4917103;28;20039;-87
2023/03/25 13:10:40;;;;;;;7.25;1.38;;;16.10;96.40;;;;;;4903916;28;20828;-88